Time;durP1;ratioP1;P1;durP2;ratioP2;P2;SDS_P1;SDS_P2;PMS_P1;PMS_P2;Temp;Humidity;BMP_temperature;BMP_pressure;BME280_temperature;BME280_humidity;BME280_pressure;Samples;Min_cycle;Max_cycle;Signal;HPM_P1;HPM_P2
2022/07/29 04:02:12;;;;;;;9.57;7.63;;;20.10;99.90;;;;;;5178635;23;20568;-62
2022/07/29 04:04:39;;;;;;;8.90;8.20;;;20.10;99.90;;;;;;4977215;28;20502;-62
2022/07/29 04:07:05;;;;;;;9.80;9.00;;;20.10;99.90;;;;;;4977042;28;20454;-62
2022/07/29 04:09:33;;;;;;;9.97;9.17;;;20.10;99.90;;;;;;4977277;28;20463;-63
2022/07/29 04:12:00;;;;;;;9.50;8.80;;;20.00;99.90;;;;;;4977311;28;20478;-62
2022/07/29 04:14:26;;;;;;;9.77;9.03;;;20.00;99.90;;;;;;4977163;28;20459;-63
2022/07/29 04:16:53;;;;;;;9.77;8.97;;;19.90;99.90;;;;;;4976728;28;20478;-63
2022/07/29 04:19:22;;;;;;;10.40;9.50;;;19.90;99.90;;;;;;4977085;28;20459;-63
2022/07/29 04:21:49;;;;;;;10.73;9.83;;;19.80;99.90;;;;;;4976892;28;20880;-62
2022/07/29 04:24:15;;;;;;;10.80;9.40;;;19.80;99.90;;;;;;4976476;28;20458;-64
2022/07/29 04:26:42;;;;;;;10.67;9.83;;;19.80;99.90;;;;;;4976544;28;20454;-63
2022/07/29 04:29:09;;;;;;;9.53;8.80;;;19.80;99.90;;;;;;4976321;28;20501;-62
2022/07/29 04:31:36;;;;;;;9.83;8.93;;;19.80;99.90;;;;;;4976346;28;20474;-63
2022/07/29 04:34:03;;;;;;;10.00;9.10;;;19.80;99.90;;;;;;4976789;28;20455;-63
2022/07/29 04:36:31;;;;;;;10.23;9.43;;;19.70;99.90;;;;;;4978642;28;20462;-62
2022/07/29 04:38:58;;;;;;;10.73;9.73;;;19.80;99.90;;;;;;4978421;28;20465;-62
2022/07/29 04:41:24;;;;;;;11.30;10.33;;;19.70;99.90;;;;;;4977236;28;20471;-63
2022/07/29 04:43:51;;;;;;;11.80;10.80;;;19.70;99.90;;;;;;4976870;28;20466;-63
2022/07/29 04:46:18;;;;;;;10.83;10.03;;;19.70;99.90;;;;;;4976574;28;20868;-63
2022/07/29 04:48:46;;;;;;;6.60;6.00;;;19.70;99.90;;;;;;4976328;28;20455;-63
2022/07/29 04:51:13;;;;;;;10.60;9.70;;;19.90;99.90;;;;;;4976735;28;20478;-64
2022/07/29 04:53:41;;;;;;;10.20;9.47;;;20.10;99.90;;;;;;4976460;28;20837;-64
2022/07/29 04:56:08;;;;;;;10.20;9.30;;;20.30;99.90;;;;;;4976432;28;20461;-64
2022/07/29 04:58:35;;;;;;;9.77;8.73;;;20.40;99.90;;;;;;4976320;28;20478;-64
2022/07/29 05:01:02;;;;;;;12.43;11.20;;;20.60;99.90;;;;;;4975910;28;20486;-63
2022/07/29 05:03:29;;;;;;;14.00;13.00;;;20.80;99.90;;;;;;4976303;28;20455;-62
2022/07/29 05:05:56;;;;;;;12.33;11.23;;;20.90;99.90;;;;;;4975625;28;20458;-64
2022/07/29 05:08:22;;;;;;;10.67;9.77;;;21.00;99.90;;;;;;4975811;28;20823;-63
2022/07/29 05:10:50;;;;;;;12.07;10.97;;;21.10;99.90;;;;;;4975635;28;20506;-63
2022/07/29 05:13:17;;;;;;;12.57;11.50;;;21.10;99.90;;;;;;4975907;28;20439;-63
2022/07/29 05:15:44;;;;;;;12.53;11.30;;;21.10;99.90;;;;;;4975602;28;20973;-61
2022/07/29 05:18:10;;;;;;;13.23;12.13;;;21.00;99.90;;;;;;4975782;28;20479;-62
2022/07/29 05:20:37;;;;;;;11.83;10.80;;;21.00;99.90;;;;;;4975782;28;20479;-61
2022/07/29 05:23:04;;;;;;;11.50;10.40;;;20.90;99.90;;;;;;4975643;28;20458;-61
2022/07/29 05:25:31;;;;;;;11.47;10.20;;;20.90;99.90;;;;;;4975392;28;20466;-61
2022/07/29 05:27:59;;;;;;;12.47;11.13;;;20.90;99.90;;;;;;4975219;28;20447;-62
2022/07/29 05:30:26;;;;;;;10.60;9.73;;;20.90;99.90;;;;;;4975314;28;20458;-62
2022/07/29 05:32:52;;;;;;;17.13;10.63;;;21.00;99.90;;;;;;4975317;28;20462;-62
2022/07/29 05:35:19;;;;;;;10.77;9.53;;;21.20;99.90;;;;;;4975458;28;20465;-63
2022/07/29 05:37:46;;;;;;;11.93;9.07;;;21.40;99.90;;;;;;4975654;28;20529;-63
2022/07/29 05:40:13;;;;;;;10.10;9.27;;;21.60;99.90;;;;;;4975098;28;21000;-62
2022/07/29 05:42:39;;;;;;;10.43;9.50;;;21.80;99.90;;;;;;4974180;28;20494;-62
2022/07/29 05:45:09;;;;;;;17.73;9.97;;;22.00;99.90;;;;;;4975273;28;20873;-62
2022/07/29 05:47:35;;;;;;;9.50;8.80;;;22.20;99.90;;;;;;4975239;28;20450;-62
2022/07/29 05:50:02;;;;;;;9.50;8.80;;;22.40;99.90;;;;;;4975160;28;20459;-62
2022/07/29 05:52:29;;;;;;;9.80;8.80;;;22.40;99.90;;;;;;4974770;28;20854;-62
2022/07/29 05:54:56;;;;;;;9.70;8.80;;;22.30;99.90;;;;;;4975202;28;20459;-63
2022/07/29 05:57:24;;;;;;;9.03;8.47;;;22.30;99.90;;;;;;4975057;28;20557;-62
2022/07/29 05:59:51;;;;;;;9.00;8.10;;;22.20;99.90;;;;;;4975170;28;20457;-64
2022/07/29 06:02:20;;;;;;;11.10;7.60;;;22.20;99.90;;;;;;4974746;28;20486;-64
2022/07/29 06:04:46;;;;;;;9.63;8.93;;;22.20;99.90;;;;;;4975076;28;20462;-64
2022/07/29 06:07:13;;;;;;;9.60;7.57;;;22.20;99.90;;;;;;4974613;28;20988;-66
2022/07/29 06:09:40;;;;;;;7.77;7.07;;;22.30;99.90;;;;;;4974975;28;20466;-65
2022/07/29 06:12:07;;;;;;;7.77;7.17;;;22.30;99.90;;;;;;4974861;28;20478;-64
2022/07/29 06:14:34;;;;;;;7.30;6.70;;;22.50;99.90;;;;;;4974676;28;20454;-64
2022/07/29 06:17:01;;;;;;;6.57;5.97;;;22.50;99.90;;;;;;4974869;28;20535;-65
2022/07/29 06:19:29;;;;;;;9.03;6.83;;;22.60;99.90;;;;;;4974898;28;20463;-63
2022/07/29 06:21:56;;;;;;;14.80;8.77;;;22.60;99.90;;;;;;4974828;28;20478;-64
2022/07/29 06:24:23;;;;;;;7.00;6.50;;;22.60;99.90;;;;;;4974905;28;20455;-65
2022/07/29 06:26:49;;;;;;;6.43;6.00;;;22.70;99.90;;;;;;4974865;28;20462;-65
2022/07/29 06:29:16;;;;;;;7.27;6.57;;;22.90;99.90;;;;;;4974864;28;20455;-65
2022/07/29 06:31:43;;;;;;;6.03;5.63;;;23.20;99.90;;;;;;4974734;28;20478;-65
2022/07/29 06:34:10;;;;;;;6.00;5.60;;;23.50;99.90;;;;;;4975028;28;20463;-65
2022/07/29 06:36:38;;;;;;;7.80;5.73;;;23.90;99.90;;;;;;4974891;28;20454;-65
2022/07/29 06:39:06;;;;;;;10.30;6.33;;;24.00;99.90;;;;;;4974712;28;20478;-65
2022/07/29 06:41:33;;;;;;;6.70;5.17;;;24.30;99.90;;;;;;4974607;28;20541;-65
2022/07/29 06:44:00;;;;;;;5.40;5.00;;;24.70;99.90;;;;;;4976478;28;20561;-65
2022/07/29 06:46:27;;;;;;;5.83;5.33;;;25.10;99.90;;;;;;4979363;28;20461;-65
2022/07/29 06:48:54;;;;;;;7.00;4.90;;;25.20;99.90;;;;;;4979029;28;20447;-65
2022/07/29 06:51:21;;;;;;;6.40;5.30;;;25.30;99.90;;;;;;4974681;28;20489;-64
2022/07/29 06:53:49;;;;;;;5.73;5.03;;;25.30;99.90;;;;;;4977395;28;20486;-64
2022/07/29 06:56:16;;;;;;;10.87;6.67;;;25.30;99.90;;;;;;4978331;28;20517;-65
2022/07/29 06:58:43;;;;;;;6.87;5.00;;;25.30;99.90;;;;;;4978136;28;20842;-64
2022/07/29 07:01:09;;;;;;;4.90;4.50;;;25.40;99.90;;;;;;4977845;28;20490;-64
2022/07/29 07:03:36;;;;;;;6.30;4.10;;;25.50;99.90;;;;;;4978140;28;20462;-64
2022/07/29 07:06:03;;;;;;;4.77;4.40;;;25.70;99.90;;;;;;4978565;28;20469;-64
2022/07/29 07:08:30;;;;;;;4.60;4.30;;;26.20;99.90;;;;;;4977779;28;20478;-64
2022/07/29 07:10:58;;;;;;;5.03;4.57;;;26.80;99.90;;;;;;4977849;28;20482;-65
2022/07/29 07:13:25;;;;;;;5.60;5.20;;;27.40;99.90;;;;;;4977598;28;20486;-65
2022/07/29 07:15:52;;;;;;;4.80;4.50;;;27.90;99.90;;;;;;4977901;28;20454;-64
2022/07/29 07:18:19;;;;;;;4.80;4.40;;;28.50;99.90;;;;;;4977456;28;20949;-64
2022/07/29 07:20:46;;;;;;;5.53;4.40;;;29.00;99.90;;;;;;4977424;28;20481;-65
2022/07/29 07:23:13;;;;;;;4.77;3.77;;;29.20;99.90;;;;;;4977886;28;20462;-63
2022/07/29 07:25:39;;;;;;;4.30;4.00;;;29.20;99.90;;;;;;4977867;28;20793;-63
2022/07/29 07:28:07;;;;;;;4.67;4.37;;;29.20;99.90;;;;;;4978107;28;20462;-64
2022/07/29 07:30:34;;;;;;;4.97;4.57;;;29.40;99.90;;;;;;4977671;28;20478;-65
2022/07/29 07:33:01;;;;;;;3.97;3.67;;;29.90;99.90;;;;;;4977735;28;20946;-64
2022/07/29 07:35:28;;;;;;;4.20;4.00;;;30.00;99.80;;;;;;4978241;28;20494;-64
2022/07/29 07:37:55;;;;;;;3.93;3.73;;;30.20;99.40;;;;;;4977671;28;20565;-64
2022/07/29 07:40:22;;;;;;;4.50;3.70;;;30.50;98.40;;;;;;4977728;28;20454;-64
2022/07/29 07:42:49;;;;;;;4.37;3.90;;;30.50;97.80;;;;;;4977618;28;20461;-65
2022/07/29 07:45:17;;;;;;;4.60;4.20;;;30.50;98.10;;;;;;4977740;28;20454;-64
2022/07/29 07:47:44;;;;;;;4.73;3.73;;;30.80;96.50;;;;;;4977609;28;20461;-64
2022/07/29 07:50:12;;;;;;;4.47;3.93;;;31.20;95.30;;;;;;4977648;28;20450;-65
2022/07/29 07:52:47;;;;;;;3.93;3.60;;;31.50;94.00;;;;;;4977479;28;20462;-64
2022/07/29 07:55:14;;;;;;;4.40;4.10;;;31.70;93.40;;;;;;4977476;28;20449;-64
2022/07/29 07:57:41;;;;;;;5.90;3.67;;;31.90;92.20;;;;;;4977496;28;20489;-64
2022/07/29 08:00:09;;;;;;;4.33;4.03;;;32.10;92.30;;;;;;4977606;28;20458;-65
2022/07/29 08:02:37;;;;;;;4.27;3.97;;;32.40;91.10;;;;;;4976914;28;20986;-64
2022/07/29 08:05:04;;;;;;;4.40;4.10;;;32.40;90.30;;;;;;4978562;28;20462;-65
2022/07/29 08:07:31;;;;;;;5.17;4.13;;;32.60;88.10;;;;;;4981384;28;20462;-65
2022/07/29 08:09:57;;;;;;;4.17;3.77;;;32.60;87.70;;;;;;4978320;28;20450;-64
2022/07/29 08:12:24;;;;;;;4.37;4.00;;;32.30;87.70;;;;;;4977896;28;20517;-64
2022/07/29 08:14:51;;;;;;;4.47;4.07;;;32.30;88.10;;;;;;4976869;28;20450;-64
2022/07/29 08:17:18;;;;;;;3.80;3.60;;;32.40;86.90;;;;;;4976766;28;20459;-65
2022/07/29 08:19:48;;;;;;;4.77;4.30;;;32.60;84.90;;;;;;4977034;28;20478;-64
2022/07/29 08:22:14;;;;;;;7.10;3.77;;;32.50;84.00;;;;;;4976878;28;20475;-65
2022/07/29 08:24:45;;;;;;;4.10;3.90;;;32.20;85.70;;;;;;4976816;28;20461;-65
2022/07/29 08:27:13;;;;;;;5.80;4.63;;;32.00;87.40;;;;;;4977000;28;20531;-65
2022/07/29 08:29:40;;;;;;;3.80;3.50;;;32.30;85.10;;;;;;4976992;28;20458;-64
2022/07/29 08:32:07;;;;;;;4.87;4.47;;;32.70;84.80;;;;;;4976373;28;21021;-65
2022/07/29 08:34:34;;;;;;;6.53;4.70;;;32.90;80.10;;;;;;4976833;28;20454;-65
2022/07/29 08:37:02;;;;;;;8.30;5.50;;;33.10;80.90;;;;;;4976441;28;20458;-65
2022/07/29 08:39:28;;;;;;;6.03;5.40;;;33.60;79.40;;;;;;4976607;28;20505;-65
2022/07/29 08:41:55;;;;;;;5.23;4.70;;;33.80;78.20;;;;;;4976816;28;20834;-65
2022/07/29 08:44:22;;;;;;;7.37;4.50;;;34.00;76.10;;;;;;4976689;28;20464;-65
2022/07/29 08:46:50;;;;;;;5.50;4.23;;;34.40;74.20;;;;;;4976637;28;20454;-66
2022/07/29 08:49:17;;;;;;;5.27;4.50;;;34.40;74.40;;;;;;4976484;28;20489;-65
2022/07/29 08:51:44;;;;;;;6.80;4.53;;;34.80;72.30;;;;;;4976354;28;20481;-65
2022/07/29 08:54:17;;;;;;;6.90;4.00;;;35.10;69.70;;;;;;4976498;28;20450;-66
2022/07/29 08:56:44;;;;;;;4.97;4.00;;;35.40;64.40;;;;;;4976223;28;20913;-65
2022/07/29 08:59:11;;;;;;;4.60;4.20;;;35.60;61.20;;;;;;4976577;28;20477;-65
2022/07/29 09:01:39;;;;;;;6.40;4.30;;;35.90;61.60;;;;;;4976027;28;20485;-65
2022/07/29 09:04:11;;;;;;;4.60;4.20;;;36.00;61.50;;;;;;4976341;28;20458;-65
2022/07/29 09:06:40;;;;;;;4.90;4.50;;;36.30;60.50;;;;;;4975811;28;20439;-66
2022/07/29 09:09:08;;;;;;;6.60;4.30;;;36.20;59.60;;;;;;4976524;28;20826;-65
2022/07/29 09:11:37;;;;;;;5.73;4.70;;;36.40;60.60;;;;;;4975460;28;20477;-66
2022/07/29 09:14:03;;;;;;;7.33;4.27;;;36.50;58.00;;;;;;4975889;28;20454;-65
2022/07/29 09:16:48;;;;;;;4.10;3.90;;;36.30;58.40;;;;;;4975448;28;20462;-64
2022/07/29 09:19:25;;;;;;;4.63;4.23;;;36.10;58.10;;;;;;4975567;28;20477;-65
2022/07/29 09:21:58;;;;;;;4.07;3.73;;;35.70;58.00;;;;;;4975653;28;20505;-65
2022/07/29 09:24:27;;;;;;;4.40;4.13;;;35.50;60.00;;;;;;4975558;28;20443;-65
2022/07/29 09:26:55;;;;;;;5.10;4.60;;;36.00;58.50;;;;;;4975596;28;20461;-65
2022/07/29 09:29:24;;;;;;;4.90;4.40;;;36.20;58.00;;;;;;4975420;28;20806;-66
2022/07/29 09:31:52;;;;;;;6.13;4.73;;;35.90;57.50;;;;;;4975662;28;20560;-66
2022/07/29 09:34:23;;;;;;;4.47;4.10;;;36.30;56.30;;;;;;4975715;28;20454;-65
2022/07/29 09:36:52;;;;;;;4.60;4.20;;;36.70;55.90;;;;;;4975720;28;20477;-65
2022/07/29 09:39:29;;;;;;;4.33;4.03;;;36.90;56.00;;;;;;4975523;28;20478;-66
2022/07/29 09:41:59;;;;;;;4.43;3.90;;;37.10;55.30;;;;;;4975479;28;20519;-65
2022/07/29 09:44:26;;;;;;;4.30;3.83;;;37.30;55.60;;;;;;4975542;28;20458;-66
2022/07/29 09:46:56;;;;;;;4.70;4.40;;;37.90;55.10;;;;;;4975480;28;20446;-67
2022/07/29 09:49:23;;;;;;;4.37;4.00;;;38.40;53.90;;;;;;4975428;28;20450;-66
2022/07/29 09:52:00;;;;;;;7.00;3.73;;;38.80;51.10;;;;;;4975146;28;20480;-66
2022/07/29 09:54:28;;;;;;;5.53;4.13;;;38.50;50.60;;;;;;4975416;28;20917;-65
2022/07/29 09:56:57;;;;;;;4.13;3.80;;;38.10;51.00;;;;;;4974953;28;20485;-66
2022/07/29 09:59:26;;;;;;;5.20;4.90;;;37.60;52.30;;;;;;4975426;28;20532;-66
2022/07/29 10:01:53;;;;;;;6.90;4.63;;;37.50;52.70;;;;;;4974633;28;20492;-65
2022/07/29 10:04:20;;;;;;;4.30;4.00;;;37.30;53.00;;;;;;4975032;28;20450;-64
2022/07/29 10:06:58;;;;;;;4.73;4.10;;;37.30;53.20;;;;;;4974916;28;20529;-64
2022/07/29 10:09:25;;;;;;;6.73;4.00;;;37.40;51.70;;;;;;4975175;28;20921;-64
2022/07/29 10:12:06;;;;;;;5.33;4.23;;;37.50;51.40;;;;;;4974888;28;20505;-64
2022/07/29 10:14:34;;;;;;;4.53;4.13;;;37.60;50.40;;;;;;4975130;28;20438;-65
2022/07/29 10:17:01;;;;;;;7.20;4.53;;;37.60;51.10;;;;;;4974660;28;20465;-64
2022/07/29 10:19:30;;;;;;;4.20;3.83;;;37.20;50.20;;;;;;4974884;28;20473;-64
2022/07/29 10:21:57;;;;;;;4.30;3.70;;;36.50;51.40;;;;;;4976790;28;20473;-63
2022/07/29 10:24:26;;;;;;;5.20;4.80;;;35.60;52.70;;;;;;4979789;28;20860;-64
2022/07/29 10:26:55;;;;;;;5.63;5.03;;;34.50;54.90;;;;;;4979346;28;20454;-63
2022/07/29 10:29:23;;;;;;;5.40;4.97;;;33.60;56.30;;;;;;4982167;28;20457;-63
2022/07/29 10:32:03;;;;;;;5.10;4.70;;;33.10;57.60;;;;;;4979167;28;20624;-64
2022/07/29 10:34:45;;;;;;;5.13;4.80;;;32.60;58.60;;;;;;4978867;28;20438;-65
2022/07/29 10:37:23;;;;;;;5.10;4.70;;;32.30;58.80;;;;;;4978449;28;20902;-63
2022/07/29 10:40:01;;;;;;;5.87;5.37;;;31.80;60.00;;;;;;4978570;28;20470;-64
2022/07/29 10:42:30;;;;;;;5.43;5.03;;;31.30;61.10;;;;;;4978308;28;20969;-64
2022/07/29 10:44:58;;;;;;;7.30;6.00;;;31.00;62.60;;;;;;4978583;28;20464;-64
2022/07/29 10:47:27;;;;;;;6.03;5.37;;;30.50;63.10;;;;;;4978439;28;20466;-64
2022/07/29 10:49:59;;;;;;;6.13;5.07;;;30.20;64.30;;;;;;4978545;28;20545;-64
2022/07/29 10:52:28;;;;;;;6.37;5.80;;;29.80;65.10;;;;;;4978354;28;20500;-64
2022/07/29 10:54:55;;;;;;;5.70;5.30;;;29.40;66.70;;;;;;4978415;28;20458;-64
2022/07/29 10:57:26;;;;;;;5.20;4.70;;;29.20;68.00;;;;;;4978557;28;20821;-64
2022/07/29 11:00:30;;;;;;;7.47;5.80;;;29.10;68.80;;;;;;4978226;28;20462;-64
2022/07/29 11:02:57;;;;;;;5.73;5.23;;;28.90;69.10;;;;;;4978093;28;20442;-64
2022/07/29 11:05:26;;;;;;;6.77;6.27;;;28.80;69.40;;;;;;4978207;28;20454;-64
2022/07/29 11:08:21;;;;;;;5.77;5.20;;;28.70;69.20;;;;;;4977907;28;20960;-64
2022/07/29 11:10:48;;;;;;;5.87;5.37;;;28.60;71.30;;;;;;4977955;28;20474;-64
2022/07/29 11:13:46;;;;;;;7.77;5.40;;;28.50;71.30;;;;;;4978116;28;20454;-64
2022/07/29 11:16:15;;;;;;;7.90;5.90;;;28.40;70.40;;;;;;4977736;28;20438;-64
2022/07/29 11:19:15;;;;;;;7.03;4.93;;;28.30;70.50;;;;;;4978395;28;20478;-64
2022/07/29 11:21:43;;;;;;;7.50;5.50;;;28.20;71.80;;;;;;4977459;28;20541;-64
2022/07/29 11:24:14;;;;;;;6.60;5.27;;;28.20;71.20;;;;;;4977799;28;20458;-64
2022/07/29 11:26:41;;;;;;;6.43;5.97;;;28.10;70.30;;;;;;4977311;28;21008;-64
2022/07/29 11:29:19;;;;;;;8.17;5.63;;;28.00;71.40;;;;;;4977825;28;20481;-64
2022/07/29 11:31:51;;;;;;;5.50;5.00;;;27.90;71.30;;;;;;4977731;28;20501;-64
2022/07/29 11:34:27;;;;;;;7.47;5.40;;;27.70;71.80;;;;;;4977795;28;20445;-64
2022/07/29 11:37:22;;;;;;;10.07;6.20;;;27.60;73.50;;;;;;4977997;28;20439;-64
2022/07/29 11:40:16;;;;;;;5.77;5.17;;;27.50;74.50;;;;;;4977398;28;20482;-64
2022/07/29 11:42:47;;;;;;;6.07;5.57;;;27.60;75.40;;;;;;4978556;28;20459;-64
2022/07/29 11:45:23;;;;;;;5.73;5.33;;;27.80;76.10;;;;;;4977632;28;20462;-64
2022/07/29 11:47:57;;;;;;;6.40;5.80;;;27.90;76.60;;;;;;4977450;28;20438;-64
2022/07/29 11:50:31;;;;;;;6.77;6.17;;;28.00;80.00;;;;;;4977310;28;20439;-64
2022/07/29 11:52:59;;;;;;;6.00;5.60;;;27.90;83.40;;;;;;4977295;28;20447;-64
2022/07/29 11:55:26;;;;;;;6.83;6.33;;;27.80;84.10;;;;;;4977033;28;20973;-63
2022/07/29 11:57:55;;;;;;;7.40;6.90;;;27.70;86.30;;;;;;4977426;28;20455;-64
2022/07/29 12:00:24;;;;;;;12.20;7.97;;;27.40;90.30;;;;;;4976895;28;20489;-64
2022/07/29 12:02:51;;;;;;;8.73;6.90;;;27.10;92.80;;;;;;4977288;28;20474;-64
2022/07/29 12:05:20;;;;;;;7.43;6.83;;;27.00;93.90;;;;;;4977133;28;20455;-63
2022/07/29 12:07:48;;;;;;;7.13;6.63;;;26.80;94.70;;;;;;4977015;28;20459;-63
2022/07/29 12:10:15;;;;;;;7.67;7.07;;;26.80;95.50;;;;;;4976781;28;20454;-63
2022/07/29 12:12:41;;;;;;;7.60;7.00;;;26.70;95.30;;;;;;4976630;28;20968;-63
2022/07/29 12:15:13;;;;;;;7.50;6.90;;;26.60;95.30;;;;;;4976838;28;20501;-63
2022/07/29 12:17:40;;;;;;;6.93;6.30;;;26.50;95.60;;;;;;4976428;28;20946;-65
2022/07/29 12:20:07;;;;;;;6.13;5.63;;;26.50;95.90;;;;;;4976862;28;20479;-66
2022/07/29 12:22:38;;;;;;;7.23;5.70;;;26.40;95.80;;;;;;4976599;28;20506;-66
2022/07/29 12:25:08;;;;;;;7.07;6.60;;;26.60;95.60;;;;;;4976702;28;20479;-67
2022/07/29 12:27:35;;;;;;;5.90;5.60;;;26.70;94.50;;;;;;4976609;28;20513;-67
2022/07/29 12:30:05;;;;;;;6.70;6.20;;;26.80;94.20;;;;;;4976587;28;20455;-67
2022/07/29 12:32:33;;;;;;;6.07;5.60;;;26.80;94.50;;;;;;4976523;28;20485;-67
2022/07/29 12:35:01;;;;;;;4.50;4.20;;;26.70;93.70;;;;;;4976464;28;20459;-67
2022/07/29 12:37:27;;;;;;;4.40;4.00;;;26.40;91.90;;;;;;4976490;28;20470;-67
2022/07/29 12:39:56;;;;;;;5.77;3.87;;;26.10;90.60;;;;;;4976252;28;20475;-68
2022/07/29 12:42:22;;;;;;;4.53;4.17;;;25.90;90.10;;;;;;4976333;28;20479;-67
2022/07/29 12:44:51;;;;;;;3.07;2.83;;;25.90;90.60;;;;;;4976204;28;20458;-67
2022/07/29 12:47:18;;;;;;;6.73;5.87;;;25.90;87.00;;;;;;4975817;28;20461;-67
2022/07/29 12:49:46;;;;;;;16.47;14.87;;;25.80;87.30;;;;;;4976242;28;20514;-68
2022/07/29 12:52:26;;;;;;;11.33;10.23;;;25.90;86.40;;;;;;4976039;28;20558;-67
2022/07/29 12:54:53;;;;;;;3.60;3.30;;;26.10;87.40;;;;;;4975993;28;20463;-67
2022/07/29 12:57:21;;;;;;;3.33;2.83;;;26.20;86.60;;;;;;4976246;28;20535;-68
2022/07/29 13:00:01;;;;;;;5.00;3.40;;;26.20;85.60;;;;;;4975581;28;20843;-68
2022/07/29 13:02:27;;;;;;;3.17;2.87;;;26.20;84.30;;;;;;4975370;28;20493;-68
2022/07/29 13:04:58;;;;;;;3.90;3.00;;;26.10;84.80;;;;;;4975789;28;20459;-68
2022/07/29 13:07:28;;;;;;;3.30;3.10;;;26.10;85.70;;;;;;4975911;28;20475;-68
2022/07/29 13:10:10;;;;;;;4.30;3.30;;;26.00;87.20;;;;;;4975701;28;20498;-68
2022/07/29 13:12:38;;;;;;;4.03;3.73;;;26.00;88.50;;;;;;4976646;28;20481;-68
2022/07/29 13:15:14;;;;;;;4.87;4.47;;;25.80;90.30;;;;;;4975715;28;20458;-68
2022/07/29 13:17:42;;;;;;;5.30;4.90;;;25.70;91.20;;;;;;4975470;28;20474;-68
2022/07/29 13:20:12;;;;;;;5.03;4.63;;;25.60;91.90;;;;;;4975416;28;21048;-68
2022/07/29 13:22:39;;;;;;;5.47;4.97;;;25.40;92.70;;;;;;4975545;28;20475;-68
2022/07/29 13:25:07;;;;;;;5.60;5.10;;;25.20;93.70;;;;;;4975577;28;20461;-68
2022/07/29 13:27:36;;;;;;;5.10;4.70;;;25.20;94.70;;;;;;4975555;28;20458;-68
2022/07/29 13:30:07;;;;;;;4.70;4.30;;;25.10;95.30;;;;;;4975674;28;20509;-67
2022/07/29 13:32:34;;;;;;;6.33;4.83;;;25.10;96.00;;;;;;4975266;28;20876;-67
2022/07/29 13:35:02;;;;;;;4.70;4.50;;;25.10;96.20;;;;;;4975429;28;20490;-68
2022/07/29 13:37:29;;;;;;;5.50;5.10;;;25.10;96.60;;;;;;4975036;28;20455;-68
2022/07/29 13:39:56;;;;;;;5.30;4.80;;;25.10;97.20;;;;;;4975305;28;20514;-68
2022/07/29 13:42:23;;;;;;;5.30;4.80;;;25.00;97.20;;;;;;4975193;28;20485;-68
2022/07/29 13:44:51;;;;;;;6.40;4.80;;;25.00;97.40;;;;;;4975201;28;20463;-68
2022/07/29 13:47:19;;;;;;;5.50;4.93;;;25.00;98.30;;;;;;4975310;28;20455;-68
2022/07/29 13:49:46;;;;;;;5.67;5.27;;;25.00;99.20;;;;;;4975374;28;20820;-68
2022/07/29 13:52:13;;;;;;;5.13;4.53;;;25.00;99.90;;;;;;4975190;28;20486;-68
2022/07/29 13:54:39;;;;;;;6.03;5.43;;;25.00;99.90;;;;;;4975256;28;20463;-67
2022/07/29 13:57:06;;;;;;;5.57;5.07;;;25.20;99.90;;;;;;4974748;28;20969;-67
2022/07/29 13:59:33;;;;;;;5.80;4.67;;;25.50;99.90;;;;;;4975181;28;20530;-68
2022/07/29 14:02:00;;;;;;;4.60;4.20;;;25.80;99.90;;;;;;4973903;28;20494;-68
2022/07/29 14:04:28;;;;;;;5.13;4.60;;;26.00;99.70;;;;;;4975967;28;20985;-69
2022/07/29 14:06:55;;;;;;;4.93;4.50;;;26.00;99.50;;;;;;4974969;28;20462;-68
2022/07/29 14:09:21;;;;;;;5.77;5.10;;;26.20;99.70;;;;;;4974907;28;20462;-68
2022/07/29 14:11:49;;;;;;;7.93;4.80;;;26.40;98.90;;;;;;4974745;28;20485;-69
2022/07/29 14:14:16;;;;;;;5.43;4.93;;;26.50;98.90;;;;;;4974927;28;20459;-68
2022/07/29 14:16:43;;;;;;;6.93;5.17;;;26.70;98.50;;;;;;4974907;28;20451;-69
2022/07/29 14:19:10;;;;;;;5.50;5.20;;;26.70;98.90;;;;;;4975127;28;20821;-68
2022/07/29 14:21:39;;;;;;;6.07;5.53;;;26.90;98.70;;;;;;4974922;28;20541;-69
2022/07/29 14:24:06;;;;;;;5.90;5.33;;;27.10;98.40;;;;;;4974792;28;20462;-69
2022/07/29 14:26:33;;;;;;;5.80;5.40;;;27.10;96.60;;;;;;4974854;28;20454;-69
2022/07/29 14:29:00;;;;;;;6.07;5.57;;;27.20;95.90;;;;;;4975019;28;20457;-69
2022/07/29 14:31:27;;;;;;;6.60;5.97;;;27.10;95.50;;;;;;4974698;28;20474;-69
2022/07/29 14:33:53;;;;;;;5.93;5.50;;;27.00;95.30;;;;;;4974474;28;20826;-69
2022/07/29 14:36:20;;;;;;;5.97;5.47;;;27.00;95.40;;;;;;4974841;28;20478;-65
2022/07/29 14:38:48;;;;;;;6.13;5.63;;;26.90;96.10;;;;;;4974847;28;20455;-68
2022/07/29 14:41:15;;;;;;;6.10;5.50;;;26.90;96.80;;;;;;4974596;28;20486;-69
2022/07/29 14:43:41;;;;;;;8.53;5.63;;;27.00;95.50;;;;;;4974618;28;20455;-68
2022/07/29 14:46:08;;;;;;;5.80;5.20;;;27.10;96.30;;;;;;4974780;28;20459;-69
2022/07/29 14:48:35;;;;;;;7.03;6.37;;;27.20;97.50;;;;;;4974376;28;20486;-68
2022/07/29 14:51:02;;;;;;;6.30;5.43;;;27.20;96.30;;;;;;4974282;28;20533;-70
2022/07/29 14:53:28;;;;;;;5.97;5.57;;;27.20;95.80;;;;;;4974597;28;20455;-69
2022/07/29 14:55:56;;;;;;;6.17;5.67;;;27.30;96.30;;;;;;4974593;28;20454;-68
2022/07/29 14:58:23;;;;;;;6.07;5.57;;;27.40;97.00;;;;;;4974795;28;20485;-70
2022/07/29 15:00:50;;;;;;;6.40;5.90;;;27.50;97.00;;;;;;4974275;28;20490;-69
2022/07/29 15:03:17;;;;;;;5.57;5.17;;;27.60;96.80;;;;;;4974651;28;20446;-69
2022/07/29 15:05:43;;;;;;;5.93;5.53;;;27.70;96.50;;;;;;4974448;28;20454;-68
2022/07/29 15:08:10;;;;;;;6.37;5.77;;;27.70;95.90;;;;;;4974606;28;20466;-69
2022/07/29 15:10:37;;;;;;;6.40;5.80;;;27.70;95.70;;;;;;4974580;28;20901;-69
2022/07/29 15:13:05;;;;;;;8.00;5.40;;;27.60;95.50;;;;;;4974554;28;20553;-69
2022/07/29 15:15:32;;;;;;;6.00;5.50;;;27.60;95.50;;;;;;4978019;28;20450;-69
2022/07/29 15:17:59;;;;;;;6.00;5.50;;;27.60;95.90;;;;;;4978007;28;20454;-69
2022/07/29 15:20:26;;;;;;;6.53;6.03;;;27.40;97.00;;;;;;4977683;28;20489;-69
2022/07/29 15:22:55;;;;;;;8.50;7.70;;;27.30;97.70;;;;;;4977880;28;20545;-69
2022/07/29 15:25:21;;;;;;;9.50;8.70;;;27.10;98.60;;;;;;4977429;28;20466;-69
2022/07/29 15:27:48;;;;;;;7.87;7.20;;;26.90;99.10;;;;;;4977919;28;20454;-69
2022/07/29 15:30:17;;;;;;;7.80;7.13;;;26.90;99.90;;;;;;4977716;28;20453;-70
2022/07/29 15:32:44;;;;;;;7.50;6.77;;;26.90;99.90;;;;;;4977607;28;20525;-69
2022/07/29 15:35:11;;;;;;;6.90;6.30;;;27.00;99.90;;;;;;4977579;28;20458;-69
2022/07/29 15:37:37;;;;;;;7.73;6.97;;;27.00;99.90;;;;;;4977575;28;20465;-69
2022/07/29 15:40:05;;;;;;;7.87;7.27;;;27.00;99.90;;;;;;4977533;28;20482;-69
2022/07/29 15:42:33;;;;;;;7.27;6.67;;;27.10;99.90;;;;;;4977435;28;20481;-69
2022/07/29 15:45:02;;;;;;;8.17;7.47;;;27.00;99.90;;;;;;4977138;28;20459;-70
2022/07/29 15:47:30;;;;;;;7.50;6.80;;;27.10;99.90;;;;;;4977334;28;20454;-70
2022/07/29 15:49:57;;;;;;;8.20;6.70;;;27.10;99.90;;;;;;4976859;28;20934;-70
2022/07/29 15:52:24;;;;;;;7.90;6.73;;;27.00;99.90;;;;;;4977109;28;20533;-70
2022/07/29 15:54:50;;;;;;;7.67;6.97;;;27.10;99.90;;;;;;4977320;28;20454;-70
2022/07/29 15:57:17;;;;;;;3.90;3.60;;;27.10;99.90;;;;;;4977046;28;20454;-70
2022/07/29 15:59:44;;;;;;;4.40;3.77;;;27.10;89.00;;;;;;4977212;28;20454;-69
2022/07/29 16:02:10;;;;;;;3.33;2.90;;;27.20;89.60;;;;;;4976632;28;20490;-70
2022/07/29 16:04:39;;;;;;;3.33;2.90;;;27.30;82.30;;;;;;4977227;28;20525;-70
2022/07/29 16:07:05;;;;;;;5.03;2.70;;;27.40;77.20;;;;;;4977077;28;20458;-70
2022/07/29 16:09:32;;;;;;;4.47;2.77;;;27.50;76.10;;;;;;4977088;28;20461;-70
2022/07/29 16:11:59;;;;;;;2.67;2.47;;;27.70;76.80;;;;;;4976689;28;20482;-71
2022/07/29 16:14:26;;;;;;;4.27;2.50;;;27.70;75.70;;;;;;4977045;28;20462;-69
2022/07/29 16:16:53;;;;;;;4.90;2.60;;;27.90;74.70;;;;;;4976828;28;20462;-69
2022/07/29 16:19:20;;;;;;;2.90;2.70;;;28.00;73.50;;;;;;4976828;28;20461;-70
2022/07/29 16:21:48;;;;;;;3.03;2.70;;;28.10;70.60;;;;;;4976692;28;20487;-69
2022/07/29 16:24:15;;;;;;;3.80;2.63;;;28.20;71.50;;;;;;4976653;28;20459;-69
2022/07/29 16:26:42;;;;;;;4.30;3.37;;;28.20;71.20;;;;;;4975971;28;20462;-70
2022/07/29 16:29:08;;;;;;;6.70;2.50;;;28.30;69.90;;;;;;4976721;28;20483;-70
2022/07/29 16:31:35;;;;;;;3.70;2.70;;;28.40;72.70;;;;;;4976599;28;20466;-70
2022/07/29 16:34:02;;;;;;;3.07;2.40;;;28.40;69.00;;;;;;4976476;28;20459;-70
2022/07/29 16:36:29;;;;;;;7.67;3.10;;;28.40;68.20;;;;;;4976272;28;20541;-71
2022/07/29 16:38:57;;;;;;;3.07;2.80;;;28.40;69.60;;;;;;4976357;28;20462;-69
2022/07/29 16:41:23;;;;;;;6.57;2.80;;;28.40;69.10;;;;;;4975876;28;20483;-69
2022/07/29 16:43:50;;;;;;;4.00;2.53;;;28.40;69.00;;;;;;4976313;28;20454;-69
2022/07/29 16:46:17;;;;;;;3.20;2.70;;;28.40;73.30;;;;;;4976258;28;20509;-69
2022/07/29 16:48:43;;;;;;;6.20;2.77;;;28.30;67.70;;;;;;4976386;28;20461;-68
2022/07/29 16:51:10;;;;;;;2.43;2.23;;;28.40;67.30;;;;;;4976239;28;20474;-68
2022/07/29 16:53:37;;;;;;;7.03;3.07;;;28.40;68.20;;;;;;4976192;28;20531;-68